• Join FlightAware (Why Join?)
  • Login
  • US Flag 
08:46AM EDT


 

Airport Tracker/Info


-or-


 

Live Flight TrackerFlight Track Log ✈ GJS3710 ✈ 09-May-2013 ✈ KMSY - KORD

Flight Track Log - Related Links

Times and Time Zones

All times are in EDT time to prevent confusion due to time zone crossing. See the GJS3710 flight status page for this flight to view local times or setup timezone preferences in your user account.

Time Position Orientation Groundspeed Altitude Reporting Facility
EDT Latitude Longitude Course Direction KTS MPH feet Rate Location/Type
03:45PM 29.9886 -90.2511 North 148 170 700  Level Houston Center
03:46PM 29.9789 -90.2081 105° East 173 199 2,000 1,560 Climbing Houston Center
03:46PM 29.9781 -90.1939 94° East 177 204 2,600 2,400 Climbing Houston Center
03:47PM 29.9725 -90.1364 96° East 231 266 4,700 2,280 Climbing Houston Center
03:47PM 29.9808 -90.1281 41° Northeast 206 237 5,000 1,860 Climbing Houston Center
03:48PM 30.0350 -90.1361 353° North 267 307 6,600 1,920 Climbing Houston Center
03:48PM 30.0472 -90.1428 335° Northwest 244 281 7,000 1,860 Climbing Houston Center
03:49PM 30.4794 -90.4500 North  Level FlightAware Approximate
03:49PM 30.1186 -90.1844 333° Northwest 276 318 9,100  Level Houston Center
03:50PM 30.5874 -90.4440 North  Level FlightAware Approximate
03:50PM 30.2114 -90.2378 334° Northwest 300 345 11,700  Level Houston Center
03:51PM 30.2967 -90.2842 335° Northwest 327 376 13,700 1,920 Climbing Houston Center
03:52PM 30.3867 -90.3342 334° Northwest 351 404 15,800 1,860 Climbing Houston Center
03:53PM 30.4767 -90.3869 333° Northwest 360 414 17,600 1,740 Climbing Houston Center
03:54PM 30.5683 -90.4414 333° Northwest 366 421 19,400 1,860 Climbing Houston Center
03:55PM 30.6628 -90.4889 337° Northwest 369 425 21,500 1,980 Climbing Houston Center
03:56PM 30.7833 -90.5067 353° North 382 440 23,500 1,560 Climbing Houston Center
03:57PM 30.8931 -90.4978 North 390 449 24,800 1,080 Climbing Houston Center
03:58PM 31.0069 -90.4886 North 404 465 25,800 960 Climbing Houston Center
04:00PM 31.1253 -90.4783 North 420 483 26,800 960 Climbing Houston Center
04:01PM 31.2439 -90.4700 North 424 488 27,800 960 Climbing Houston Center
04:02PM 31.3661 -90.4589 North 436 502 28,800 1,020 Climbing Houston Center
04:03PM 31.5136 -90.4467 North 441 507 30,000 1,020 Climbing Houston Center
04:04PM 31.6356 -90.4364 North 440 506 31,000 840 Climbing Houston Center
04:05PM 31.7583 -90.4256 North 440 506 31,800 720 Climbing Houston Center
04:06PM 31.8825 -90.4156 North 443 510 32,500 720 Climbing Houston Center
04:06PM 31.9328 -90.4111 North 443 510 32,800 780 Climbing Memphis Center
04:07PM 32.0456 -90.3989 North 448 516 33,600 780 Climbing Memphis Center
04:08PM 32.1689 -90.3917 North 448 516 34,400 780 Climbing Memphis Center
04:09PM 32.2942 -90.3794 North 443 510 35,200 780 Climbing Memphis Center
04:10PM 32.4131 -90.3697 North 438 504 36,000 780 Climbing Memphis Center
04:11PM 32.5342 -90.3597 North 438 504 36,800 480 Climbing Memphis Center
04:12PM 32.6531 -90.3500 North 433 498 37,000 60 Climbing Memphis Center
04:13PM 32.7722 -90.3400 North 428 493 37,000  Level Memphis Center
04:14PM 32.8933 -90.3300 North 428 493 37,000  Level Memphis Center
04:15PM 33.0122 -90.3175 North 423 487 37,000  Level Memphis Center
04:16PM 33.1311 -90.3100 North 423 487 37,000  Level Memphis Center
04:17PM 33.2586 -90.2975 North 423 487 37,000  Level Memphis Center
04:18PM 33.3775 -90.2875 North 423 487 37,000  Level Memphis Center
04:19PM 33.4839 -90.2750 North 423 487 37,000  Level Memphis Center
04:20PM 33.5986 -90.2525 North 423 487 37,000  Level Memphis Center
04:21PM 33.7178 -90.2322 North 428 493 37,100 420 Climbing Memphis Center
04:22PM 33.8325 -90.2122 North 428 493 37,900 660 Climbing Memphis Center
04:23PM 33.9431 -90.1869 11° North 414 476 38,500 540 Climbing Memphis Center
04:24PM 34.0703 -90.1667 North 414 476 39,000 240 Climbing Memphis Center
04:25PM 34.1872 -90.1436 North 414 476 39,000  Level Memphis Center
04:26PM 34.2997 -90.1233 North 408 470 39,000  Level Memphis Center
04:27PM 34.4167 -90.1003 North 418 481 39,000  Level Memphis Center
04:28PM 34.5314 -90.0797 North 424 488 39,000  Level Memphis Center
04:29PM 34.6503 -90.0592 North 429 494 39,000  Level Memphis Center
04:30PM 34.7692 -90.0361 North 429 494 39,000  Level Memphis Center
04:31PM 34.8775 -90.0178 North 429 494 39,000  Level Memphis Center
04:32PM 34.9922 -90.0225 358° North 416 479 39,000  Level Memphis Center
04:33PM 35.0986 -90.0475 349° North 397 457 39,000  Level Memphis Center
04:34PM 35.2094 -90.0750 349° North 392 451 39,000  Level Memphis Center
04:35PM 35.3264 -90.1025 349° North 392 451 39,000  Level Memphis Center
04:36PM 35.4328 -90.1278 349° North 392 451 39,000  Level Memphis Center
04:37PM 35.5369 -90.1556 348° North 392 451 39,000  Level Memphis Center
04:38PM 35.6475 -90.1808 349° North 397 457 39,000  Level Memphis Center
04:39PM 35.7478 -90.2086 347° North 391 450 39,000  Level Memphis Center
04:40PM 35.8375 -90.2317 348° North 389 448 39,000  Level Memphis Center
04:41PM 35.9564 -90.2622 348° North 394 453 39,000  Level Memphis Center
04:42PM 36.0689 -90.2903 349° North 394 453 39,000  Level Memphis Center
04:43PM 36.1794 -90.3183 348° North 399 459 39,000  Level Memphis Center
04:44PM 36.2919 -90.3467 349° North 404 465 39,000  Level Memphis Center
04:45PM 36.4047 -90.3775 348° North 410 472 39,000  Level Memphis Center
04:46PM 36.5150 -90.4061 348° North 410 472 39,000  Level Memphis Center
04:47PM 36.6297 -90.4369 348° North 410 472 39,000  Level Memphis Center
04:48PM 36.7464 -90.4656 349° North 410 472 39,000  Level Memphis Center
04:50PM 36.9575 -90.5133 350° North 427 491 39,000  Level Kansas City Center
04:51PM 37.0758 -90.5439 348° North 431 496 39,000  Level Kansas City Center
04:52PM 37.1961 -90.5739 349° North 435 501 39,000  Level Kansas City Center
04:53PM 37.3142 -90.6058 348° North 434 499 39,000  Level Kansas City Center
04:54PM 37.4233 -90.6344 348° North 436 502 39,000  Level Kansas City Center
04:55PM 37.5683 -90.6711 349° North 441 507 39,000  Level Kansas City Center
04:56PM 37.6897 -90.7042 348° North 444 511 39,000  Level Kansas City Center
04:57PM 37.8117 -90.7369 348° North 447 514 39,000  Level Kansas City Center
04:58PM 37.9347 -90.7700 348° North 450 518 39,000  Level Kansas City Center
04:59PM 38.0600 -90.8019 349° North 452 520 39,000 -60 Level Kansas City Center
05:00PM 38.1869 -90.8375 348° North 458 527 38,900 -360 Descending Kansas City Center
05:01PM 38.3153 -90.8700 349° North 461 531 38,300 -480 Descending Kansas City Center
05:02PM 38.4722 -90.9114 348° North 467 537 38,000 -180 Descending Kansas City Center
05:03PM 38.6033 -90.9214 357° North 472 543 38,000 -240 Level Kansas City Center
05:04PM 38.7278 -90.8706 18° North 468 539 37,600 -540 Descending Kansas City Center
05:05PM 38.8503 -90.8094 21° North 466 536 37,000 -300 Descending Kansas City Center
05:06PM 38.9733 -90.7472 21° North 469 540 37,000  Level Kansas City Center
05:07PM 39.0978 -90.6842 21° North 474 545 37,000  Level Kansas City Center
05:08PM 39.2225 -90.6172 23° Northeast 482 555 37,000  Level Kansas City Center
05:09PM 39.3478 -90.5519 22° Northeast 483 556 37,000 -540 Level Kansas City Center
05:10PM 39.4978 -90.4758 21° North 482 555 36,000 -900 Descending Kansas City Center
05:11PM 39.6231 -90.4089 22° Northeast 485 558 35,200 -780 Descending Kansas City Center
05:12PM 39.7386 -90.3481 22° Northeast 487 560 34,500 -780 Descending Kansas City Center
05:14PM 39.8653 -90.2833 21° North 488 562 33,700 -960 Descending Kansas City Center
05:14PM 39.9647 -90.2303 22° Northeast 489 563 33,000 -480 Descending Chicago Center
05:15PM 40.0894 -90.1658 22° Northeast 483 556 33,000  Level Chicago Center
05:16PM 40.2108 -90.1003 22° Northeast 475 547 33,000  Level Chicago Center
05:17PM 40.3331 -90.0356 22° Northeast 473 544 33,000  Level Chicago Center
05:18PM 40.4564 -89.9694 22° Northeast 477 549 33,000  Level Chicago Center
05:19PM 40.5878 -89.8994 22° Northeast 481 554 33,000 -180 Level Chicago Center
05:20PM 40.7119 -89.8314 23° Northeast 482 555 32,700 -1,380 Descending Chicago Center
05:21PM 40.8378 -89.7639 22° Northeast 485 558 30,200 -2,700 Descending Chicago Center
05:22PM 40.9900 -89.6833 22° Northeast 489 563 27,200 -2,520 Descending Chicago Center
05:23PM 41.0881 -89.6231 25° Northeast 464 534 25,000 -2,340 Descending Chicago Center
05:24PM 41.1728 -89.4606 55° Northeast 443 510 22,400 -2,280 Descending Chicago Center
05:25PM 41.2322 -89.3306 59° Northeast 415 478 20,300 -2,160 Descending Chicago Center
05:27PM 41.2922 -89.2008 58° Northeast 411 473 18,000 -2,340 Descending Chicago Center
05:28PM 41.3539 -89.0597 60° Northeast 399 459 15,500 -2,280 Descending Chicago Center
05:29PM 41.4103 -88.9356 59° Northeast 396 456 13,300 -2,040 Descending Chicago Center
05:30PM 41.4650 -88.8153 59° Northeast 383 441 11,400 -1,140 Descending Chicago Center
05:31PM 41.5167 -88.6983 59° Northeast 367 422 11,000 -240 Descending Chicago Center
05:32PM 41.5667 -88.5753 61° Northeast 378 435 11,000 -60 Level Chicago Center
05:33PM 41.6317 -88.4664 51° Northeast 379 436 10,900 -600 Descending Chicago Center
05:34PM 41.7019 -88.3600 48° Northeast 312 359 9,800 -960 Descending Chicago Center
05:35PM 41.7544 -88.2764 50° Northeast 294 338 9,000 -720 Descending Chicago Center
05:36PM 41.8075 -88.1911 50° Northeast 297 342 8,400 -720 Descending Chicago Center
05:37PM 41.8622 -88.1042 50° Northeast 303 349 7,600 -720 Descending Chicago Center
05:38PM 41.9500 -88.0833 10° North 267 307 7,000 -480 Descending Chicago TRACON
05:39PM 42.0167 -88.1000 349° North 252 290 6,700 -600 Descending Chicago TRACON
05:40PM 42.0667 -88.1667 315° West 245 282 5,800 -900 Descending Chicago TRACON
05:41PM 42.1167 -88.1333 26° Northeast 217 250 4,900 -1,200 Descending Chicago TRACON
05:42PM 42.1000 -88.0500 105° East 179 206 3,400 -1,380 Descending Chicago TRACON